createdAt,value
2019-05-22T00:00:24.124Z,65.91
2019-05-22T00:02:55.996Z,66.24
2019-05-22T00:05:35.501Z,67.29
2019-05-22T00:08:09.487Z,66.25
2019-05-22T00:10:44.521Z,66.48
2019-05-22T00:13:23.159Z,67.43
2019-05-22T00:15:57.199Z,68.07
2019-05-22T00:18:30.478Z,67.29
2019-05-22T00:21:04.616Z,67.64
2019-05-22T00:23:38.101Z,68.52
2019-05-22T00:26:11.309Z,68.99
2019-05-22T00:28:47.527Z,69.61
2019-05-22T00:31:22.096Z,69.59
2019-05-22T00:33:55.914Z,69.74
2019-05-22T00:36:29.495Z,68.54
2019-05-22T00:39:03.818Z,68.11
2019-05-22T00:41:35.300Z,67.79
2019-05-22T00:44:13.066Z,68.50
2019-05-22T00:46:44.596Z,68.58
2019-05-22T00:49:18.352Z,68.28
2019-05-22T00:52:04.306Z,65.71
2019-05-22T00:54:41.570Z,65.42
2019-05-22T00:57:24.443Z,65.68
2019-05-22T00:59:57.730Z,66.28
2019-05-22T01:02:31.186Z,66.17
2019-05-22T01:05:05.539Z,66.27
2019-05-22T01:07:39.873Z,66.54
2019-05-22T01:10:15.059Z,66.21
2019-05-22T01:12:54.840Z,66.42
2019-05-22T01:15:29.586Z,65.96
2019-05-22T01:18:06.836Z,66.02
2019-05-22T01:20:51.989Z,65.52
2019-05-22T01:23:24.849Z,65.57
2019-05-22T01:25:56.491Z,64.59
2019-05-22T01:28:30.355Z,64.11
2019-05-22T01:31:11.968Z,64.07
2019-05-22T01:34:01.462Z,63.54
2019-05-22T01:36:38.211Z,63.14
2019-05-22T01:39:33.680Z,63.25
2019-05-22T01:42:08.759Z,62.41
2019-05-22T01:44:40.812Z,62.65
2019-05-22T01:47:16.789Z,62.48
2019-05-22T01:49:51.750Z,62.59
2019-05-22T01:52:27.170Z,62.49
2019-05-22T01:55:01.177Z,62.45
2019-05-22T01:57:35.984Z,62.13
2019-05-22T02:00:10.720Z,62.33
2019-05-22T02:02:43.934Z,61.37
2019-05-22T02:05:17.192Z,59.91
2019-05-22T02:07:55.715Z,60.31
2019-05-22T02:10:37.201Z,60.68
2019-05-22T02:13:11.490Z,60.61
2019-05-22T02:15:46.395Z,60.86
2019-05-22T02:18:19.482Z,61.00
2019-05-22T02:20:52.045Z,61.04
2019-05-22T02:23:26.094Z,61.00
2019-05-22T02:26:01.156Z,60.42
2019-05-22T02:28:34.041Z,60.47
2019-05-22T02:31:11.548Z,60.71
2019-05-22T02:34:02.245Z,60.12
2019-05-22T02:36:41.222Z,59.93
2019-05-22T02:39:21.547Z,58.85
2019-05-22T02:42:06.679Z,58.63
2019-05-22T02:44:38.551Z,58.64
2019-05-22T02:47:19.987Z,58.85
2019-05-22T02:49:50.374Z,58.86
2019-05-22T02:52:26.343Z,58.87
2019-05-22T02:54:58.231Z,59.01
2019-05-22T02:57:31.731Z,59.10
2019-05-22T03:00:08.788Z,59.38
2019-05-22T03:02:44.254Z,59.55
2019-05-22T03:05:21.031Z,59.47
2019-05-22T03:07:53.168Z,59.52
2019-05-22T03:10:25.673Z,59.39
2019-05-22T03:12:58.552Z,59.72
2019-05-22T03:15:31.724Z,59.24
2019-05-22T03:18:09.042Z,59.07
2019-05-22T03:20:43.887Z,59.33
2019-05-22T03:23:36.680Z,59.17
2019-05-22T03:26:11.254Z,59.21
2019-05-22T03:28:46.131Z,59.57
2019-05-22T03:31:18.727Z,59.10
2019-05-22T03:33:57.563Z,59.33
2019-05-22T03:36:29.485Z,58.51
2019-05-22T03:39:04.723Z,58.65
2019-05-22T03:41:38.056Z,58.64
2019-05-22T03:44:11.205Z,60.58
2019-05-22T03:46:46.642Z,60.59
2019-05-22T03:49:29.749Z,60.62
2019-05-22T03:51:55.857Z,60.62
2019-05-22T03:54:27.375Z,61.21
2019-05-22T03:57:00.712Z,61.22
2019-05-22T03:59:32.327Z,60.91
2019-05-22T04:02:06.229Z,60.62
2019-05-22T04:04:41.161Z,61.07
2019-05-22T04:07:16.494Z,61.19
2019-05-22T04:09:52.893Z,61.25
2019-05-22T04:12:27.533Z,61.45
2019-05-22T04:15:11.420Z,61.19
2019-05-22T04:17:45.809Z,60.65
2019-05-22T04:20:21.130Z,61.41
2019-05-22T04:22:56.587Z,61.52
2019-05-22T04:25:28.305Z,61.98
2019-05-22T04:28:01.144Z,62.40
2019-05-22T04:30:40.015Z,62.72
2019-05-22T04:33:14.004Z,63.04
2019-05-22T04:35:50.299Z,63.28
2019-05-22T04:38:24.584Z,63.82
2019-05-22T04:40:59.865Z,64.73
2019-05-22T04:43:34.264Z,65.98
2019-05-22T04:46:06.626Z,70.97
2019-05-22T04:48:39.632Z,74.59
2019-05-22T04:51:25.405Z,75.46
2019-05-22T04:54:00.188Z,77.37
2019-05-22T04:56:32.122Z,80.27
2019-05-22T04:59:04.452Z,80.82
2019-05-22T05:01:36.583Z,81.08
2019-05-22T05:04:08.479Z,81.00
2019-05-22T05:06:40.165Z,81.65
2019-05-22T05:09:13.402Z,85.26
2019-05-22T05:11:45.199Z,88.49
2019-05-22T05:14:23.188Z,88.21
2019-05-22T05:16:55.912Z,93.28
2019-05-22T05:19:27.679Z,91.07
2019-05-22T05:22:00.309Z,92.31
2019-05-22T05:24:33.581Z,91.28
2019-05-22T05:27:05.410Z,90.05
2019-05-22T05:29:37.090Z,91.94
2019-05-22T05:32:10.439Z,93.33
2019-05-22T05:34:45.591Z,94.98
2019-05-22T05:37:32.046Z,96.27
2019-05-22T05:40:08.136Z,96.24
2019-05-22T05:42:39.987Z,96.05
2019-05-22T05:45:14.894Z,95.97
2019-05-22T05:47:47.699Z,96.20
2019-05-22T05:50:20.300Z,94.74
2019-05-22T05:52:52.363Z,92.72
2019-05-22T05:55:29.486Z,93.75
2019-05-22T05:58:16.344Z,96.54
2019-05-22T06:00:55.754Z,95.87
2019-05-22T06:03:33.816Z,95.17
2019-05-22T06:06:26.093Z,95.29
2019-05-22T06:09:02.318Z,96.04
2019-05-22T06:11:53.097Z,96.42
2019-05-22T06:14:28.855Z,97.40
2019-05-22T06:17:07.742Z,98.61
2019-05-22T06:19:52.462Z,95.46
2019-05-22T06:22:24.069Z,95.36
2019-05-22T06:25:02.154Z,96.10
2019-05-22T06:27:35.374Z,96.74
2019-05-22T06:30:21.568Z,96.71
2019-05-22T06:33:10.444Z,97.12
2019-05-22T06:35:44.782Z,97.13
2019-05-22T06:38:44.169Z,98.07
2019-05-22T06:41:20.372Z,99.27
2019-05-22T06:44:22.092Z,99.00
2019-05-22T06:46:54.780Z,99.78
2019-05-22T06:49:35.224Z,97.81
2019-05-22T06:52:08.215Z,97.41
2019-05-22T06:54:40.266Z,97.93
2019-05-22T06:57:13.965Z,96.71
2019-05-22T06:59:47.784Z,95.66
2019-05-22T07:02:21.329Z,95.93
2019-05-22T07:04:53.738Z,96.70
2019-05-22T07:07:27.128Z,97.07
2019-05-22T07:10:01.598Z,96.33
2019-05-22T07:12:35.012Z,96.71
2019-05-22T07:15:11.753Z,96.43
2019-05-22T07:17:43.725Z,96.28
2019-05-22T07:20:18.056Z,96.35
2019-05-22T07:22:53.365Z,95.16
2019-05-22T07:25:26.756Z,95.17
2019-05-22T07:28:00.312Z,96.33
2019-05-22T07:30:32.526Z,96.48
2019-05-22T07:33:06.473Z,96.00
2019-05-22T07:35:55.937Z,95.43
2019-05-22T07:38:12.825Z,95.14
2019-05-22T07:40:44.910Z,94.38
2019-05-22T07:43:17.302Z,94.21
2019-05-22T07:45:49.727Z,94.61
2019-05-22T07:48:23.750Z,93.05
2019-05-22T07:50:56.992Z,93.47
2019-05-22T07:53:30.756Z,93.09
2019-05-22T07:56:06.095Z,92.41
2019-05-22T07:58:40.550Z,94.03
2019-05-22T08:01:12.360Z,94.33
2019-05-22T08:03:46.766Z,95.28
2019-05-22T08:06:19.115Z,95.38
2019-05-22T08:08:52.786Z,96.82
2019-05-22T08:11:26.390Z,96.24
2019-05-22T08:14:01.114Z,94.08
2019-05-22T08:16:35.113Z,95.60
2019-05-22T08:19:07.273Z,94.99
2019-05-22T08:22:06.834Z,93.06
2019-05-22T08:24:37.993Z,92.53
2019-05-22T08:27:21.103Z,92.91
2019-05-22T08:30:02.699Z,92.43
2019-05-22T08:32:45.816Z,93.26
2019-05-22T08:35:34.305Z,92.86
2019-05-22T08:38:14.150Z,93.32
2019-05-22T08:40:48.971Z,93.32
2019-05-22T08:43:21.025Z,90.60
2019-05-22T08:45:53.132Z,88.06
2019-05-22T08:48:28.483Z,84.89
2019-05-22T08:51:01.338Z,83.79
2019-05-22T08:53:46.871Z,83.15
2019-05-22T08:56:15.405Z,82.12
2019-05-22T08:58:48.707Z,81.21
2019-05-22T09:01:20.979Z,80.18
2019-05-22T09:03:52.779Z,80.20
2019-05-22T09:06:25.732Z,79.66
2019-05-22T09:09:01.768Z,81.35
2019-05-22T09:11:34.532Z,82.73
2019-05-22T09:14:07.357Z,84.88
2019-05-22T09:16:44.072Z,85.20
2019-05-22T09:19:20.144Z,85.28
2019-05-22T09:21:51.689Z,85.35
2019-05-22T09:24:26.648Z,86.12
2019-05-22T09:27:07.769Z,86.83
2019-05-22T09:29:40.369Z,86.54
2019-05-22T09:32:12.316Z,87.06
2019-05-22T09:34:48.401Z,86.73
2019-05-22T09:37:30.907Z,87.61
2019-05-22T09:40:11.900Z,89.26
2019-05-22T09:42:45.681Z,88.18
2019-05-22T09:45:53.303Z,88.96
2019-05-22T09:49:19.091Z,89.97
2019-05-22T09:51:17.560Z,91.13
2019-05-22T09:53:53.965Z,92.11
2019-05-22T09:56:30.231Z,92.36
2019-05-22T09:59:06.186Z,92.32
2019-05-22T10:01:37.833Z,92.73
2019-05-22T10:04:09.892Z,92.03
2019-05-22T10:06:44.261Z,91.93
2019-05-22T10:09:17.900Z,90.48
2019-05-22T10:11:52.863Z,89.98
2019-05-22T10:14:25.484Z,89.62
2019-05-22T10:17:01.567Z,89.99
2019-05-22T10:19:52.452Z,89.85
2019-05-22T10:22:26.893Z,89.88
2019-05-22T10:25:14.833Z,89.72
2019-05-22T10:27:37.858Z,89.06
2019-05-22T10:30:18.805Z,89.81
2019-05-22T10:33:01.760Z,90.80
2019-05-22T10:35:37.772Z,90.42
2019-05-22T10:38:11.408Z,90.33
2019-05-22T10:40:48.344Z,91.13
2019-05-22T10:43:25.306Z,91.01
2019-05-22T10:45:59.606Z,92.46
2019-05-22T10:48:43.029Z,93.02
2019-05-22T10:51:20.044Z,93.91
2019-05-22T10:53:58.588Z,94.03
2019-05-22T10:56:46.708Z,95.77
2019-05-22T10:59:42.435Z,96.79
2019-05-22T11:02:37.545Z,96.42
2019-05-22T11:08:35.656Z,99.28
2019-05-22T11:11:19.843Z,98.87
2019-05-22T11:14:09.300Z,99.66
2019-05-22T11:16:42.578Z,99.87
2019-05-22T11:19:19.795Z,100.00
2019-05-22T11:22:05.675Z,100.00
2019-05-22T11:24:41.973Z,100.00
2019-05-22T11:27:14.308Z,100.00
2019-05-22T11:29:56.136Z,100.00
2019-05-22T11:32:37.218Z,100.00
2019-05-22T11:35:17.352Z,100.00
2019-05-22T11:37:55.159Z,100.00
2019-05-22T11:40:28.435Z,100.00
2019-05-22T11:43:00.235Z,100.00
2019-05-22T11:45:40.165Z,100.00
2019-05-22T11:48:16.499Z,100.00
2019-05-22T11:50:49.269Z,100.00
2019-05-22T11:53:21.859Z,100.00
2019-05-22T11:55:55.786Z,100.00
2019-05-22T11:58:28.865Z,100.00
2019-05-22T12:01:02.482Z,100.00
2019-05-22T12:03:35.471Z,100.00
2019-05-22T12:06:08.787Z,100.00
2019-05-22T12:08:42.419Z,100.00
2019-05-22T12:11:17.686Z,100.00
2019-05-22T12:13:53.068Z,100.00
2019-05-22T12:16:43.512Z,99.90
2019-05-22T12:19:15.954Z,99.98
2019-05-22T12:21:56.360Z,99.77
2019-05-22T12:24:47.327Z,98.91
2019-05-22T12:27:26.747Z,98.91
2019-05-22T12:30:07.713Z,99.26
2019-05-22T12:32:41.116Z,98.13
2019-05-22T12:35:17.319Z,96.65
2019-05-22T12:37:49.349Z,97.16
2019-05-22T12:40:22.955Z,96.83
2019-05-22T12:42:59.328Z,97.40
2019-05-22T12:45:34.617Z,97.59
2019-05-22T12:48:08.382Z,94.74
2019-05-22T12:50:40.695Z,94.14
2019-05-22T12:53:21.923Z,94.15
2019-05-22T12:55:58.974Z,92.53
2019-05-22T12:58:32.457Z,92.68
2019-05-22T13:01:09.096Z,91.24
2019-05-22T13:03:45.107Z,89.55
2019-05-22T13:06:16.881Z,89.14
2019-05-22T13:08:48.806Z,89.59
2019-05-22T13:11:29.781Z,89.28
2019-05-22T13:14:07.689Z,90.10
2019-05-22T13:16:49.037Z,90.38
2019-05-22T13:19:59.698Z,88.76
2019-05-22T13:22:40.376Z,88.36
2019-05-22T13:25:17.399Z,88.27
2019-05-22T13:27:51.942Z,87.78
2019-05-22T13:30:28.763Z,88.56
2019-05-22T13:33:04.486Z,88.32
2019-05-22T13:35:43.351Z,88.19
2019-05-22T13:38:26.563Z,88.93
2019-05-22T13:41:58.527Z,89.79
2019-05-22T13:44:54.018Z,90.49
2019-05-22T13:48:14.166Z,90.96
2019-05-22T13:51:00.301Z,90.69
2019-05-22T13:53:50.448Z,91.34
2019-05-22T13:56:26.038Z,92.26
2019-05-22T13:59:16.084Z,90.87
2019-05-22T14:02:12.489Z,88.46
2019-05-22T14:05:13.582Z,85.94
2019-05-22T14:07:59.216Z,85.04
2019-05-22T14:10:34.335Z,84.37
2019-05-22T14:13:08.262Z,84.27
2019-05-22T14:16:00.691Z,83.22
2019-05-22T14:18:35.857Z,83.89
2019-05-22T14:21:14.538Z,83.39
2019-05-22T14:23:54.597Z,83.74
2019-05-22T14:29:31.543Z,87.87
2019-05-22T14:32:15.065Z,89.71
2019-05-22T14:41:47.155Z,87.62
2019-05-22T14:44:49.257Z,84.23
2019-05-22T14:50:48.803Z,83.50
2019-05-22T14:57:10.684Z,82.43
2019-05-22T15:10:30.295Z,81.15
2019-05-22T15:16:53.536Z,81.09
2019-05-22T15:19:47.019Z,82.07
2019-05-22T15:22:19.244Z,82.65
2019-05-22T15:24:52.943Z,82.47
2019-05-22T15:27:27.814Z,83.81
2019-05-22T15:33:52.938Z,81.73
2019-05-22T15:37:01.382Z,83.16
2019-05-22T15:39:46.406Z,80.39
2019-05-22T15:42:55.233Z,81.17
2019-05-22T15:45:31.723Z,77.72
2019-05-22T15:48:13.231Z,75.78
2019-05-22T15:50:47.043Z,76.13
2019-05-22T15:53:32.843Z,75.64
2019-05-22T15:56:30.946Z,76.56
2019-05-22T16:02:35.273Z,75.99
2019-05-22T16:05:09.096Z,75.83
2019-05-22T16:07:56.492Z,76.17
2019-05-22T16:13:22.196Z,76.56
2019-05-22T16:19:38.801Z,78.50
2019-05-22T16:22:31.112Z,78.44
2019-05-22T16:25:20.482Z,78.97
2019-05-22T16:28:11.992Z,79.38
2019-05-22T16:30:58.163Z,79.94
2019-05-22T16:33:36.774Z,79.97
2019-05-22T16:36:10.153Z,80.59
2019-05-22T16:38:44.713Z,80.70
2019-05-22T16:41:23.893Z,80.72
2019-05-22T16:43:56.046Z,81.56
2019-05-22T16:46:30.480Z,81.22
2019-05-22T16:49:02.357Z,82.25
2019-05-22T16:51:35.871Z,82.24
2019-05-22T16:54:09.808Z,82.84
2019-05-22T16:56:41.976Z,83.35
2019-05-22T16:59:14.688Z,83.59
2019-05-22T17:01:59.526Z,83.83
2019-05-22T17:04:27.612Z,85.05
2019-05-22T17:07:04.809Z,86.09
2019-05-22T17:09:39.814Z,85.21
2019-05-22T17:12:13.403Z,88.17
2019-05-22T17:14:46.716Z,89.20
2019-05-22T17:17:22.198Z,89.31
2019-05-22T17:19:59.145Z,90.22
2019-05-22T17:22:31.375Z,89.96
2019-05-22T17:25:03.106Z,87.87
2019-05-22T17:27:35.659Z,89.79
2019-05-22T17:30:10.144Z,90.28
2019-05-22T17:32:44.517Z,91.31
2019-05-22T17:35:23.696Z,91.24
2019-05-22T17:37:58.773Z,91.05
2019-05-22T17:40:33.678Z,90.85
2019-05-22T17:43:08.538Z,92.02
2019-05-22T17:45:43.132Z,90.38
2019-05-22T17:48:22.991Z,89.90
2019-05-22T17:50:58.574Z,88.59
2019-05-22T17:53:31.495Z,88.12
2019-05-22T17:56:04.545Z,87.89
2019-05-22T18:09:27.449Z,88.24
2019-05-22T18:12:00.810Z,87.38
2019-05-22T18:14:32.614Z,87.46
2019-05-22T18:17:10.444Z,87.10
2019-05-22T18:19:45.589Z,87.32
2019-05-22T18:22:22.140Z,87.48
2019-05-22T18:24:55.039Z,87.48
2019-05-22T18:27:27.766Z,87.63
2019-05-22T18:29:59.855Z,87.49
2019-05-22T18:32:35.723Z,87.53
2019-05-22T18:35:10.928Z,86.94
2019-05-22T18:37:43.892Z,87.08
2019-05-22T18:40:19.611Z,86.95
2019-05-22T18:42:52.418Z,87.54
2019-05-22T18:45:25.542Z,88.43
2019-05-22T18:47:57.283Z,90.67
2019-05-22T18:50:29.322Z,91.76
2019-05-22T18:53:00.966Z,90.05
2019-05-22T18:55:34.624Z,89.32
2019-05-22T18:58:06.297Z,89.07
2019-05-22T19:00:37.858Z,88.90
2019-05-22T19:03:09.528Z,88.65
2019-05-22T19:05:42.602Z,88.73
2019-05-22T19:08:14.358Z,88.43
2019-05-22T19:10:47.034Z,88.48
2019-05-22T19:13:18.794Z,88.37
2019-05-22T19:15:50.329Z,88.18
2019-05-22T19:18:26.813Z,88.26
2019-05-22T19:20:59.495Z,87.98
2019-05-22T19:23:30.863Z,87.24
2019-05-22T19:26:06.297Z,87.68
2019-05-22T19:28:43.620Z,87.84
2019-05-22T19:31:12.476Z,87.71
2019-05-22T19:33:44.046Z,88.02
2019-05-22T19:36:15.922Z,87.71
2019-05-22T19:38:47.473Z,87.88
2019-05-22T19:41:19.991Z,88.08
2019-05-22T19:43:55.453Z,88.04
2019-05-22T19:46:27.701Z,87.90
2019-05-22T19:49:00.471Z,88.04
2019-05-22T19:51:33.958Z,88.27
2019-05-22T19:54:06.624Z,88.65
2019-05-22T19:56:38.821Z,88.74
2019-05-22T19:59:12.863Z,88.75
2019-05-22T20:01:45.063Z,89.06
2019-05-22T20:04:16.639Z,89.12
2019-05-22T20:06:48.429Z,89.09
2019-05-22T20:09:21.131Z,89.00
2019-05-22T20:11:53.766Z,88.50
2019-05-22T20:14:30.633Z,88.17
2019-05-22T20:17:01.055Z,87.86
2019-05-22T20:19:34.174Z,88.40
2019-05-22T20:22:06.720Z,88.62
2019-05-22T20:24:38.912Z,88.76
2019-05-22T20:27:10.889Z,88.61
2019-05-22T20:29:47.775Z,88.44
2019-05-22T20:32:19.731Z,87.77
2019-05-22T20:34:52.804Z,86.96
2019-05-22T20:37:24.731Z,86.44
2019-05-22T20:39:56.393Z,86.12
2019-05-22T20:42:29.381Z,85.98
2019-05-22T20:45:01.647Z,86.34
2019-05-22T20:47:35.652Z,86.51
2019-05-22T20:50:10.386Z,87.03
2019-05-22T20:52:45.732Z,88.00
2019-05-22T20:55:17.669Z,88.34
2019-05-22T20:57:49.909Z,87.97
2019-05-22T21:00:26.307Z,88.53
2019-05-22T21:03:04.195Z,87.31
2019-05-22T21:05:37.511Z,87.21
2019-05-22T21:08:12.484Z,87.15
2019-05-22T21:10:46.890Z,87.09
2019-05-22T21:13:19.957Z,86.92
2019-05-22T21:15:53.060Z,86.69
2019-05-22T21:18:26.151Z,86.55
2019-05-22T21:20:58.756Z,86.52
2019-05-22T21:23:30.467Z,86.87
2019-05-22T21:26:02.247Z,86.25
2019-05-22T21:28:33.812Z,86.20
2019-05-22T21:31:06.077Z,86.36
2019-05-22T21:33:39.599Z,86.59
2019-05-22T21:36:12.590Z,86.27
2019-05-22T21:38:45.127Z,86.25
2019-05-22T21:41:20.286Z,86.67
2019-05-22T21:43:52.519Z,86.59
2019-05-22T21:46:24.458Z,86.94
2019-05-22T21:48:57.900Z,87.13
2019-05-22T21:51:29.732Z,87.29
2019-05-22T21:54:01.943Z,87.75
2019-05-22T21:56:37.849Z,87.78
2019-05-22T21:59:09.883Z,88.13
2019-05-22T22:01:44.255Z,87.96
2019-05-22T22:04:17.410Z,88.31
2019-05-22T22:06:50.210Z,88.20
2019-05-22T22:09:22.885Z,88.51
2019-05-22T22:11:55.569Z,88.46
2019-05-22T22:14:29.191Z,88.94
2019-05-22T22:17:02.998Z,88.99
2019-05-22T22:19:36.146Z,89.06
2019-05-22T22:22:11.979Z,88.91
2019-05-22T22:24:43.751Z,89.15
2019-05-22T22:27:17.557Z,89.28
2019-05-22T22:29:50.640Z,89.04
2019-05-22T22:32:23.785Z,89.53
2019-05-22T22:34:55.356Z,89.54
2019-05-22T22:37:29.601Z,89.79
2019-05-22T22:40:02.882Z,89.91
2019-05-22T22:42:40.492Z,89.99
2019-05-22T22:45:33.038Z,90.13
2019-05-22T22:48:06.507Z,90.19
2019-05-22T22:50:39.252Z,90.18
2019-05-22T22:53:10.809Z,90.33
2019-05-22T22:55:43.906Z,90.48
2019-05-22T22:58:17.943Z,90.36
2019-05-22T23:00:53.384Z,90.36
2019-05-22T23:03:27.967Z,90.52
2019-05-22T23:05:59.760Z,90.88
2019-05-22T23:08:34.949Z,91.17
2019-05-22T23:11:07.134Z,91.14
2019-05-22T23:13:38.700Z,91.27
2019-05-22T23:16:11.865Z,91.51
2019-05-22T23:18:50.347Z,91.48
2019-05-22T23:21:20.829Z,91.64
2019-05-22T23:23:51.127Z,91.72
2019-05-22T23:26:22.759Z,91.95
2019-05-22T23:28:58.155Z,91.77
2019-05-22T23:31:33.872Z,91.93
2019-05-22T23:34:06.675Z,92.04
2019-05-22T23:36:39.394Z,91.74
2019-05-22T23:39:13.142Z,91.49
2019-05-22T23:41:46.686Z,91.20
2019-05-22T23:44:23.009Z,91.14
2019-05-22T23:46:54.539Z,91.32
2019-05-22T23:49:26.269Z,90.68
2019-05-22T23:51:58.639Z,90.44
2019-05-22T23:54:31.434Z,90.41
2019-05-22T23:57:03.325Z,90.57
2019-05-22T23:59:36.892Z,90.37
